Saint-Denis, Réunion

06:43 RET le 23 mai 2015 (GMT +0400)
Amphithéatre Bioclimatique du Moufia | | Change Station
CLOSE
Current Station
Stations météorologiques personnelles
Location: Saint-Denis, SAINT DENIS
Altitude: 272 ft
Stations météo à proximité

Alt. 272 ft 20.90 °S, 55.49 °E | Updated 2 minutes ago

Partly Cloudy
Partiellement nuageux
71.2 ° F
Paraît 75 ° F
N
4.0
Vent Variable Vent de SO
Gusts 8.0 mph

Aujourd'hui
Haut(e) -- | Bas -- ° F
--% Risque de précip.
Hier
Haut(e) -- | Bas -- ° F
Precip. -- pouce
6:43 AM 5:45 PM
Lune montante, 26% visible
Pression 30.06 pouce
Visibilité 6.2 Miles terrestres
Nuages Peu 3000 ft
indice de chaleur 75 ° F
Point de rosée 60 ° F
Humidité 68%
Précipitations 0.00 pouce
Profondeur de la couche neigeuse Non disponible.
UV 0 sur 12
Pollen Non disponible.
Qualité de l'air Non disponible.
Flu Activity Non disponible.
METAR FMEE 230230Z 17008KT 9999 FEW030 19/16 Q1018 NOSIG

More Conditions Fewer Conditions

Pression 30.06 pouce
Visibilité 6.2 Miles terrestres
Nuages Peu 3000 ft
indice de chaleur 75 ° F
Point de rosée 60 ° F
Humidité 68%
Précipitations 0.00 pouce
Profondeur de la couche neigeuse Non disponible.
UV 0 sur 12
Pollen Non disponible.
Qualité de l'air Non disponible.
Flu Activity Non disponible.
METAR FMEE 230230Z 17008KT 9999 FEW030 19/16 Q1018 NOSIG

More Conditions Fewer Conditions

10-Day Weather Forecast

Almanac

Astronomie

May. 23, 2015 Lever Coucher
Temps réel
Crépuscule civil
Crépuscule nautique
Crépuscule astronomique
Lune
Durée de lumière visible
Longueur du jour
Tomorrow will be .
, % of the Moon is Illuminated

Extrêmes aujourd'hui

Country Highs Country Lows

Community

WunderPhotos

Upload Photos

1,823,371 Photos téléchargées !

WunderBlogs® & News

Nearby

Qualité de l'air

  Qualité de l'air Indice de la qualité de l'air Polluant
Not available.

Épaisseur de neige

Station Depth Altitude

Activité sismique

Ville Distance Mag. Time & Date
Minimum magnitude displayed is 2.5.

Températures des eaux côtières

Lieu Température

Stations

Stations météo à proximité

Emplacement de la station Température Refroidissement éolien Point de rosée Humidité Vent Precip. Alt. Mise à jour Type